createdAt,value
2023-05-12T00:02:20.256Z,2.97
2023-05-12T00:05:05.834Z,2.50
2023-05-12T00:07:50.891Z,3.30
2023-05-12T00:10:36.819Z,2.90
2023-05-12T00:13:23.981Z,2.90
2023-05-12T01:03:24.828Z,2.73
2023-05-12T01:06:16.535Z,2.72
2023-05-12T01:09:01.936Z,2.80
2023-05-12T01:11:47.145Z,2.67
2023-05-12T01:14:34.079Z,2.92
2023-05-12T01:48:57.709Z,2.80
2023-05-12T01:51:42.524Z,3.00
2023-05-12T01:54:27.831Z,2.90
2023-05-12T01:57:12.718Z,2.47
2023-05-12T01:59:58.141Z,2.70
2023-05-12T02:48:17.672Z,2.70
2023-05-12T02:51:03.170Z,2.60
2023-05-12T02:53:48.584Z,2.70
2023-05-12T02:56:34.118Z,2.45
2023-05-12T02:59:19.676Z,2.33
2023-05-12T03:47:42.544Z,2.50
2023-05-12T03:50:28.212Z,2.47
2023-05-12T03:53:13.681Z,2.80
2023-05-12T03:55:58.525Z,2.25
2023-05-12T03:58:47.273Z,2.50
2023-05-12T04:47:11.490Z,2.40
2023-05-12T04:49:56.763Z,2.30
2023-05-12T04:52:42.217Z,2.38
2023-05-12T04:55:27.681Z,2.28
2023-05-12T04:58:16.180Z,2.38
2023-05-12T05:01:01.576Z,3.40
2023-05-12T05:03:47.599Z,3.85
2023-05-12T05:06:33.049Z,3.78
2023-05-12T05:09:18.866Z,4.00
2023-05-12T05:12:03.951Z,4.13
2023-05-12T05:14:49.486Z,3.90
2023-05-12T05:17:34.899Z,4.00
2023-05-12T05:20:20.841Z,3.67
2023-05-12T05:23:07.098Z,3.67
2023-05-12T05:25:52.400Z,4.05
2023-05-12T05:28:39.906Z,3.40
2023-05-12T05:31:25.836Z,3.85
2023-05-12T05:34:10.903Z,3.50
2023-05-12T05:36:56.263Z,4.10
2023-05-12T05:39:41.992Z,3.70
2023-05-12T05:42:27.040Z,3.93
2023-05-12T05:45:13.099Z,3.88
2023-05-12T05:47:58.859Z,4.20
2023-05-12T05:50:44.839Z,3.60
2023-05-12T05:53:29.937Z,3.70
2023-05-12T05:56:15.599Z,3.97
2023-05-12T05:59:03.096Z,4.00
2023-05-12T06:01:48.938Z,4.70
2023-05-12T06:04:34.241Z,5.97
2023-05-12T06:07:21.519Z,4.30
2023-05-12T06:10:07.883Z,4.07
2023-05-12T06:12:52.982Z,3.95
2023-05-12T06:15:39.662Z,4.60
2023-05-12T06:18:24.776Z,4.00
2023-05-12T06:21:11.150Z,4.10
2023-05-12T06:23:56.904Z,3.90
2023-05-12T06:26:42.251Z,3.60
2023-05-12T06:29:27.755Z,3.90
2023-05-12T06:32:13.583Z,3.80
2023-05-12T06:34:59.136Z,3.92
2023-05-12T06:37:49.370Z,3.60
2023-05-12T06:40:34.732Z,3.85
2023-05-12T06:43:21.541Z,3.88
2023-05-12T06:46:07.114Z,3.58
2023-05-12T06:48:55.308Z,3.70
2023-05-12T06:51:40.740Z,3.77
2023-05-12T06:54:28.987Z,3.88
2023-05-12T06:57:15.514Z,3.38
2023-05-12T07:00:03.003Z,3.33
2023-05-12T07:02:48.026Z,3.90
2023-05-12T07:05:33.478Z,3.50
2023-05-12T07:08:19.145Z,3.58
2023-05-12T07:11:04.634Z,3.40
2023-05-12T07:13:50.153Z,3.35
2023-05-12T07:16:35.526Z,3.30
2023-05-12T07:19:20.655Z,3.37
2023-05-12T07:22:05.713Z,3.00
2023-05-12T07:24:50.685Z,3.40
2023-05-12T07:27:35.879Z,3.33
2023-05-12T07:30:22.476Z,3.35
2023-05-12T07:33:08.556Z,3.60
2023-05-12T07:35:53.839Z,3.35
2023-05-12T07:38:38.895Z,3.47
2023-05-12T07:41:24.401Z,3.17
2023-05-12T07:44:09.830Z,2.97
2023-05-12T07:46:55.688Z,3.30
2023-05-12T07:49:40.992Z,3.70
2023-05-12T07:52:26.058Z,3.30
2023-05-12T07:55:11.520Z,3.13
2023-05-12T07:57:56.915Z,3.60
2023-05-12T08:00:42.457Z,3.20
2023-05-12T08:03:27.938Z,3.15
2023-05-12T08:06:13.188Z,3.40
2023-05-12T08:08:58.644Z,3.13
2023-05-12T08:11:46.572Z,3.15
2023-05-12T08:14:32.667Z,3.20
2023-05-12T08:17:18.511Z,2.80
2023-05-12T08:20:05.116Z,3.17
2023-05-12T08:22:50.840Z,3.25
2023-05-12T08:25:37.524Z,3.03
2023-05-12T08:28:22.874Z,2.90
2023-05-12T08:31:08.320Z,3.10
2023-05-12T08:34:08.960Z,3.20
2023-05-12T08:36:55.755Z,2.83
2023-05-12T08:39:40.888Z,3.00
2023-05-12T08:42:30.680Z,3.20
2023-05-12T08:45:15.743Z,2.92
2023-05-12T08:48:00.983Z,3.05
2023-05-12T08:50:47.326Z,3.00
2023-05-12T08:53:33.433Z,3.35
2023-05-12T08:59:11.225Z,2.83
2023-05-12T09:01:56.751Z,3.13
2023-05-12T09:04:42.833Z,3.20
2023-05-12T09:07:28.059Z,2.75
2023-05-12T09:10:32.993Z,2.97
2023-05-12T09:13:23.425Z,2.92
2023-05-12T09:16:12.656Z,3.05
2023-05-12T09:18:58.927Z,3.00
2023-05-12T09:21:44.407Z,3.08
2023-05-12T09:24:36.847Z,2.80
2023-05-12T09:27:29.028Z,2.95
2023-05-12T09:30:14.186Z,2.60
2023-05-12T09:33:09.569Z,2.95
2023-05-12T09:35:55.109Z,3.08
2023-05-12T09:38:39.979Z,2.80
2023-05-12T09:41:25.437Z,2.80
2023-05-12T09:44:14.311Z,2.90
2023-05-12T09:47:06.390Z,2.80
2023-05-12T09:49:51.892Z,2.80
2023-05-12T09:52:37.956Z,3.30
2023-05-12T09:55:23.076Z,3.05
2023-05-12T09:58:09.753Z,3.05
2023-05-12T10:01:17.647Z,2.90
2023-05-12T10:04:02.020Z,2.90
2023-05-12T10:06:47.569Z,3.00
2023-05-12T10:09:34.184Z,3.00
2023-05-12T10:12:19.543Z,2.88
2023-05-12T10:15:04.700Z,2.70
2023-05-12T10:17:53.126Z,2.92
2023-05-12T10:20:39.961Z,3.50
2023-05-12T10:23:25.189Z,3.00
2023-05-12T10:26:11.411Z,2.90
2023-05-12T10:28:57.041Z,3.17
2023-05-12T10:31:44.233Z,2.95
2023-05-12T10:34:30.646Z,3.27
2023-05-12T10:37:15.764Z,2.72
2023-05-12T10:40:03.695Z,2.88
2023-05-12T10:42:50.597Z,2.78
2023-05-12T10:45:36.083Z,2.85
2023-05-12T10:48:21.365Z,2.70
2023-05-12T10:51:12.325Z,3.03
2023-05-12T10:54:01.209Z,2.67
2023-05-12T10:56:46.793Z,3.33
2023-05-12T10:59:32.863Z,2.70
2023-05-12T11:02:19.870Z,2.57
2023-05-12T11:05:12.644Z,3.25
2023-05-12T11:07:59.074Z,2.90
2023-05-12T11:10:44.937Z,3.00
2023-05-12T11:13:30.153Z,2.55
2023-05-12T11:16:15.114Z,3.00
2023-05-12T11:19:10.053Z,6.28
2023-05-12T11:21:58.765Z,16.65
2023-05-12T11:24:44.520Z,14.68
2023-05-12T11:27:29.718Z,14.27
2023-05-12T11:30:14.707Z,14.37
2023-05-12T11:33:00.271Z,13.95
2023-05-12T11:35:45.456Z,14.15
2023-05-12T11:38:30.646Z,13.30
2023-05-12T11:41:21.363Z,13.10
2023-05-12T11:44:13.863Z,12.83
2023-05-12T11:47:01.803Z,12.63
2023-05-12T11:49:47.824Z,12.75
2023-05-12T11:52:33.129Z,12.68
2023-05-12T11:55:25.442Z,12.60
2023-05-12T11:58:17.969Z,12.37
2023-05-12T12:01:11.116Z,11.75
2023-05-12T12:03:56.340Z,12.45
2023-05-12T12:06:45.409Z,11.48
2023-05-12T12:09:31.276Z,11.75
2023-05-12T12:12:16.431Z,10.60
2023-05-12T12:15:01.631Z,10.88
2023-05-12T12:17:47.041Z,10.95
2023-05-12T12:20:32.179Z,10.23
2023-05-12T12:23:17.117Z,10.93
2023-05-12T12:26:01.813Z,10.13
2023-05-12T12:28:47.129Z,10.00
2023-05-12T12:31:34.384Z,9.40
2023-05-12T12:34:19.466Z,8.88
2023-05-12T12:37:04.712Z,9.50
2023-05-12T12:39:50.064Z,8.57
2023-05-12T12:42:36.009Z,8.07
2023-05-12T12:45:20.851Z,9.93
2023-05-12T12:48:06.875Z,14.52
2023-05-12T12:50:52.155Z,14.43
2023-05-12T12:53:43.244Z,13.60
2023-05-12T12:56:28.151Z,13.35
2023-05-12T12:59:13.140Z,13.63
2023-05-12T13:02:00.068Z,12.40
2023-05-12T13:04:45.471Z,13.10
2023-05-12T13:07:30.611Z,13.10
2023-05-12T13:10:16.554Z,12.77
2023-05-12T13:13:01.394Z,12.93
2023-05-12T13:15:47.185Z,12.30
2023-05-12T13:18:32.791Z,12.07
2023-05-12T13:21:18.719Z,12.30
2023-05-12T13:24:04.262Z,11.95
2023-05-12T13:26:49.227Z,12.57
2023-05-12T13:29:34.188Z,10.93
2023-05-12T13:32:20.717Z,12.60
2023-05-12T13:35:06.062Z,25.27
2023-05-12T13:37:51.230Z,18.95
2023-05-12T13:40:36.906Z,21.00
2023-05-12T13:43:22.355Z,18.85
2023-05-12T13:46:09.381Z,18.48
2023-05-12T13:48:54.705Z,16.17
2023-05-12T13:51:40.024Z,14.82
2023-05-12T13:54:25.771Z,15.15
2023-05-12T13:57:10.777Z,12.30
2023-05-12T13:59:58.436Z,11.02
2023-05-12T14:02:43.663Z,8.97
2023-05-12T14:05:29.191Z,5.88
2023-05-12T14:08:14.405Z,5.72
2023-05-12T14:10:59.377Z,7.13
2023-05-12T14:13:44.408Z,7.13
2023-05-12T14:16:30.050Z,7.20
2023-05-12T14:19:15.179Z,8.07
2023-05-12T14:22:00.722Z,7.22
2023-05-12T14:24:45.824Z,6.90
2023-05-12T14:27:30.791Z,7.85
2023-05-12T14:30:16.534Z,6.90
2023-05-12T14:33:02.596Z,6.57
2023-05-12T14:35:55.700Z,6.28
2023-05-12T14:38:44.747Z,6.15
2023-05-12T14:41:29.743Z,7.18
2023-05-12T14:44:15.263Z,8.57
2023-05-12T14:47:00.332Z,8.85
2023-05-12T14:49:45.817Z,9.68
2023-05-12T14:52:33.875Z,9.85
2023-05-12T14:55:19.238Z,11.30
2023-05-12T14:58:04.448Z,11.43
2023-05-12T15:00:53.204Z,10.68
2023-05-12T15:03:38.736Z,12.68
2023-05-12T15:06:24.194Z,12.25
2023-05-12T15:09:09.696Z,12.30
2023-05-12T15:11:55.091Z,13.43
2023-05-12T15:14:40.481Z,12.52
2023-05-12T15:17:27.235Z,12.85
2023-05-12T15:20:12.335Z,12.85
2023-05-12T15:22:57.219Z,12.38
2023-05-12T15:25:42.200Z,12.70
2023-05-12T15:28:27.744Z,12.90
2023-05-12T15:31:13.081Z,12.85
2023-05-12T15:33:58.457Z,12.55
2023-05-12T15:36:45.606Z,12.68
2023-05-12T15:39:31.574Z,11.93
2023-05-12T15:42:22.252Z,12.10
2023-05-12T15:45:11.368Z,12.20
2023-05-12T15:47:56.793Z,12.00
2023-05-12T15:50:41.986Z,12.05
2023-05-12T15:53:27.314Z,12.23
2023-05-12T15:56:12.727Z,11.10
2023-05-12T15:58:57.925Z,12.15
2023-05-12T16:01:42.906Z,12.10
2023-05-12T16:04:31.121Z,11.30
2023-05-12T16:07:16.874Z,11.30
2023-05-12T16:10:03.303Z,10.73
2023-05-12T16:12:48.371Z,11.30
2023-05-12T16:15:33.189Z,11.20
2023-05-12T16:18:18.344Z,11.32
2023-05-12T16:21:03.730Z,11.00
2023-05-12T16:23:48.889Z,11.13
2023-05-12T16:26:34.330Z,10.90
2023-05-12T16:29:19.756Z,10.68
2023-05-12T16:32:04.946Z,11.07
2023-05-12T16:34:50.168Z,11.23
2023-05-12T16:37:35.388Z,10.27
2023-05-12T16:40:20.362Z,10.82
2023-05-12T16:43:05.507Z,10.65
2023-05-12T16:46:01.204Z,10.05
2023-05-12T16:48:46.351Z,10.37
2023-05-12T16:51:33.295Z,10.43
2023-05-12T16:54:18.759Z,9.95
2023-05-12T16:57:03.903Z,10.05
2023-05-12T16:59:48.815Z,9.75
2023-05-12T17:02:33.900Z,9.80
2023-05-12T17:05:19.577Z,9.77
2023-05-12T17:08:04.826Z,10.35
2023-05-12T17:10:51.225Z,9.65
2023-05-12T17:13:37.500Z,9.98
2023-05-12T17:16:22.907Z,9.30
2023-05-12T17:21:56.552Z,8.15
2023-05-12T17:24:42.011Z,8.10
2023-05-12T17:27:27.784Z,6.70
2023-05-12T17:30:13.210Z,6.93
2023-05-12T17:32:58.710Z,6.70
2023-05-12T17:35:48.943Z,6.18
2023-05-12T17:38:39.924Z,6.45
2023-05-12T17:41:28.953Z,5.85
2023-05-12T17:44:14.586Z,6.33
2023-05-12T17:46:59.664Z,6.07
2023-05-12T17:49:44.985Z,6.18
2023-05-12T17:52:29.929Z,6.20
2023-05-12T17:55:15.407Z,6.50
2023-05-12T17:58:00.586Z,7.27
2023-05-12T18:00:46.096Z,6.72
2023-05-12T18:03:31.216Z,7.05
2023-05-12T18:06:16.649Z,7.68
2023-05-12T18:09:01.634Z,7.45
2023-05-12T18:11:50.051Z,7.20
2023-05-12T18:14:36.917Z,7.10
2023-05-12T18:17:22.543Z,7.35
2023-05-12T18:20:09.156Z,7.38
2023-05-12T18:22:55.475Z,7.03
2023-05-12T18:25:40.520Z,6.80
2023-05-12T18:28:25.778Z,7.00
2023-05-12T18:33:59.312Z,6.90
2023-05-12T18:36:45.071Z,6.88
2023-05-12T18:39:31.136Z,6.90
2023-05-12T18:42:16.213Z,7.47
2023-05-12T18:45:01.665Z,6.72
2023-05-12T18:47:47.241Z,6.97
2023-05-12T18:50:32.665Z,6.60
2023-05-12T18:53:17.844Z,7.37
2023-05-12T18:56:02.917Z,6.70
2023-05-12T18:58:48.153Z,6.75
2023-05-12T19:01:33.565Z,6.68
2023-05-12T19:04:19.555Z,7.05
2023-05-12T19:07:06.565Z,6.30
2023-05-12T19:09:51.734Z,6.95
2023-05-12T19:12:37.305Z,6.85
2023-05-12T19:15:22.651Z,6.70
2023-05-12T19:18:09.089Z,6.95
2023-05-12T19:20:54.233Z,6.40
2023-05-12T19:23:39.196Z,6.70
2023-05-12T19:26:24.640Z,7.38
2023-05-12T19:29:09.472Z,6.47
2023-05-12T19:31:55.198Z,6.28
2023-05-12T19:34:40.393Z,6.47
2023-05-12T19:37:25.904Z,6.25
2023-05-12T19:40:11.167Z,6.53
2023-05-12T19:42:56.532Z,6.20
2023-05-12T19:45:41.790Z,6.50
2023-05-12T19:48:27.053Z,5.77
2023-05-12T19:51:12.522Z,6.38
2023-05-12T19:53:57.683Z,6.20
2023-05-12T19:56:42.766Z,6.38
2023-05-12T19:59:27.866Z,6.15
2023-05-12T20:02:14.177Z,5.70
2023-05-12T20:05:00.324Z,6.40
2023-05-12T20:07:45.917Z,6.55
2023-05-12T20:10:31.493Z,6.05
2023-05-12T20:13:16.340Z,6.18
2023-05-12T20:16:01.397Z,5.90
2023-05-12T20:18:46.824Z,5.82
2023-05-12T20:21:32.431Z,6.60
2023-05-12T20:24:17.593Z,6.45
2023-05-12T20:27:02.900Z,5.40
2023-05-12T20:29:49.075Z,5.90
2023-05-12T20:32:34.181Z,6.43
2023-05-12T20:35:20.456Z,5.47
2023-05-12T20:38:07.007Z,5.63
2023-05-12T20:40:52.149Z,5.82
2023-05-12T20:43:37.289Z,6.17
2023-05-12T20:46:22.583Z,5.47
2023-05-12T20:49:08.479Z,5.72
2023-05-12T20:51:53.780Z,6.00
2023-05-12T20:54:38.729Z,5.45
2023-05-12T20:57:23.746Z,5.70
2023-05-12T21:00:10.772Z,5.70
2023-05-12T21:02:56.170Z,6.53
2023-05-12T21:05:41.975Z,5.30
2023-05-12T21:08:27.338Z,5.43
2023-05-12T21:11:13.193Z,4.77
2023-05-12T21:13:58.184Z,4.15
2023-05-12T21:16:43.945Z,3.67
2023-05-12T21:19:29.026Z,3.30
2023-05-12T21:22:14.423Z,3.33
2023-05-12T21:24:59.792Z,3.67
2023-05-12T21:27:47.365Z,3.00
2023-05-12T21:30:32.666Z,3.28
2023-05-12T21:33:18.175Z,3.20
2023-05-12T21:36:03.708Z,3.40
2023-05-12T21:38:49.140Z,3.37
2023-05-12T21:41:34.386Z,3.40
2023-05-12T21:44:19.410Z,3.50
2023-05-12T21:47:04.578Z,3.30
2023-05-12T21:49:54.022Z,3.58
2023-05-12T21:52:39.222Z,3.60
2023-05-12T21:55:24.337Z,3.20
2023-05-12T21:58:09.650Z,3.65
2023-05-12T22:00:54.851Z,3.35
2023-05-12T22:03:39.905Z,3.28
2023-05-12T22:06:25.359Z,2.87
2023-05-12T22:09:11.412Z,3.22
2023-05-12T22:11:56.519Z,3.05
2023-05-12T22:14:41.446Z,3.08
2023-05-12T22:17:26.370Z,3.13
2023-05-12T22:20:11.808Z,3.27
2023-05-12T22:22:56.621Z,3.28
2023-05-12T22:25:42.002Z,3.22
2023-05-12T22:28:26.839Z,3.15
2023-05-12T22:31:11.886Z,3.30
2023-05-12T22:33:57.377Z,3.30
2023-05-12T22:36:42.750Z,3.50
2023-05-12T22:39:27.726Z,3.15
2023-05-12T22:42:13.112Z,3.15
2023-05-12T22:44:58.571Z,3.60
2023-05-12T22:47:44.187Z,3.70
2023-05-12T22:50:29.395Z,3.42
2023-05-12T22:53:14.439Z,3.25
2023-05-12T22:55:59.433Z,3.25
2023-05-12T22:58:44.510Z,3.20
2023-05-12T23:01:29.398Z,3.40
2023-05-12T23:04:14.898Z,3.47
2023-05-12T23:07:00.606Z,3.50
2023-05-12T23:09:45.503Z,3.40
2023-05-12T23:12:30.862Z,3.50
2023-05-12T23:15:15.814Z,3.70
2023-05-12T23:18:00.974Z,3.38
2023-05-12T23:20:46.360Z,3.50
2023-05-12T23:23:33.019Z,3.40
2023-05-12T23:26:18.315Z,3.42
2023-05-12T23:29:04.107Z,3.73
